createdAt,value
2023-02-16T00:01:49.997Z,119.86000000000001
2023-02-16T00:06:46.235Z,132.5
2023-02-16T00:11:47.540Z,124.01999999999998
2023-02-16T00:16:45.739Z,121.67999999999999
2023-02-16T00:21:42.019Z,127.16
2023-02-16T00:26:44.248Z,121.67999999999999
2023-02-16T00:31:45.562Z,119.94000000000001
2023-02-16T00:36:41.737Z,121
2023-02-16T00:41:38.007Z,119.82000000000001
2023-02-16T00:46:34.390Z,142.54
2023-02-16T00:51:29.543Z,170.84
2023-02-16T00:56:25.801Z,226.86000000000004
2023-02-16T01:01:24.052Z,290.36
2023-02-16T01:06:20.294Z,225.87999999999997
2023-02-16T01:11:16.579Z,192.56
2023-02-16T01:16:12.906Z,178.23999999999998
2023-02-16T01:21:09.060Z,159.04000000000002
2023-02-16T01:26:06.366Z,134.28
2023-02-16T01:31:03.101Z,119.05999999999999
2023-02-16T01:36:03.827Z,112.6
2023-02-16T01:41:08.076Z,94.7
2023-02-16T01:51:16.555Z,86.94
2023-02-16T01:56:18.846Z,94.64000000000001
2023-02-16T02:01:33.025Z,81.16
2023-02-16T02:06:34.268Z,89.96000000000001
2023-02-16T02:11:41.508Z,98.24000000000001
2023-02-16T02:16:38.743Z,91.05999999999999
2023-02-16T02:21:51.015Z,78.1
2023-02-16T02:27:04.189Z,68.82
2023-02-16T02:32:09.549Z,78.08
2023-02-16T02:37:10.688Z,81.58000000000001
2023-02-16T02:42:13.905Z,83.47999999999999
2023-02-16T02:47:10.172Z,86.64
2023-02-16T02:52:06.454Z,89.7
2023-02-16T02:57:04.705Z,82.48
2023-02-16T03:02:01.978Z,88.78
2023-02-16T03:07:01.198Z,92.82000000000001
2023-02-16T03:12:00.437Z,90.52
2023-02-16T03:16:59.683Z,92.53999999999999
2023-02-16T03:21:57.984Z,87.12
2023-02-16T03:26:55.187Z,83.1
2023-02-16T03:31:54.555Z,81.7
2023-02-16T03:36:52.732Z,83.26
2023-02-16T03:41:50.983Z,77.74000000000001
2023-02-16T03:46:47.251Z,92.06000000000002
2023-02-16T03:51:42.482Z,84.62
2023-02-16T03:56:37.763Z,83.41999999999999
2023-02-16T04:01:34.018Z,88.26000000000002
2023-02-16T04:06:30.266Z,93.12
2023-02-16T04:11:26.506Z,89.05999999999999
2023-02-16T04:16:21.847Z,93.94000000000001
2023-02-16T04:26:22.310Z,82.5
2023-02-16T04:31:18.665Z,75
2023-02-16T04:36:14.787Z,73.2
2023-02-16T04:41:11.088Z,76.84
2023-02-16T04:46:07.546Z,74.56
2023-02-16T04:51:03.844Z,78.44
2023-02-16T04:55:59.822Z,77.32000000000001
2023-02-16T05:00:56.097Z,78.2
2023-02-16T05:05:52.358Z,76.14000000000001
2023-02-16T05:10:48.608Z,69.34
2023-02-16T05:15:44.944Z,66.55999999999999
2023-02-16T05:20:42.138Z,64.3
2023-02-16T05:25:38.383Z,65.3
2023-02-16T05:30:34.726Z,51.720000000000006
2023-02-16T05:35:30.890Z,52.419999999999995
2023-02-16T05:40:27.169Z,54.04
2023-02-16T05:45:23.488Z,52.220000000000006
2023-02-16T05:50:19.713Z,58.839999999999996
2023-02-16T05:55:15.922Z,55.78000000000001
2023-02-16T06:00:13.201Z,56.8
2023-02-16T06:05:09.468Z,61.660000000000004
2023-02-16T06:10:06.696Z,82.7
2023-02-16T06:15:02.997Z,96.14
2023-02-16T06:19:59.262Z,86.28
2023-02-16T06:24:55.499Z,77.74
2023-02-16T06:29:51.921Z,143.46
2023-02-16T06:34:48.017Z,124
2023-02-16T06:39:44.278Z,104.68000000000002
2023-02-16T06:44:41.522Z,106.16000000000001
2023-02-16T06:49:37.794Z,104.06000000000002
2023-02-16T06:54:35.058Z,264.21999999999997
2023-02-16T06:59:31.314Z,152.34
2023-02-16T07:04:27.563Z,60.08
2023-02-16T07:09:23.806Z,62.720000000000006
2023-02-16T07:14:20.094Z,53.14
2023-02-16T07:19:16.377Z,65.48
2023-02-16T07:24:12.632Z,72.66
2023-02-16T07:29:08.875Z,73.88
2023-02-16T07:34:05.127Z,74.5
2023-02-16T07:39:01.391Z,91.92000000000002
2023-02-16T07:43:57.676Z,134.8
2023-02-16T07:48:52.916Z,118.96000000000001
2023-02-16T07:53:49.157Z,117.26000000000002
2023-02-16T07:58:45.472Z,113.3
2023-02-16T08:03:41.712Z,113.73999999999998
2023-02-16T08:08:37.972Z,132.10000000000002
2023-02-16T08:13:34.178Z,146.47999999999996
2023-02-16T08:18:30.456Z,137.7
2023-02-16T08:23:26.735Z,154.95999999999998
2023-02-16T08:28:22.999Z,126.22
2023-02-16T08:33:19.255Z,117.28
2023-02-16T08:38:15.547Z,106.9
2023-02-16T08:43:11.779Z,117.42
2023-02-16T08:48:08.034Z,124.92
2023-02-16T08:53:04.318Z,102.52000000000001
2023-02-16T08:58:00.578Z,97.06
2023-02-16T09:02:57.767Z,82.28
2023-02-16T09:07:54.057Z,76.62
2023-02-16T09:12:50.321Z,57.61999999999999
2023-02-16T09:17:46.578Z,48.46
2023-02-16T09:27:40.083Z,45.36
2023-02-16T09:32:36.364Z,47.120000000000005
2023-02-16T09:37:32.606Z,56.86
2023-02-16T09:42:50.820Z,51.3
2023-02-16T09:47:52.078Z,40.779999999999994
2023-02-16T09:52:54.282Z,39.44
2023-02-16T09:57:56.564Z,46.260000000000005
2023-02-16T10:03:11.760Z,73.86
2023-02-16T10:08:13.983Z,56.24000000000001
2023-02-16T10:13:17.254Z,40.34
2023-02-16T10:18:19.523Z,34.2
2023-02-16T10:23:25.727Z,26.580000000000002
2023-02-16T10:28:30.974Z,33.260000000000005
2023-02-16T10:33:35.177Z,49.02
2023-02-16T10:38:37.486Z,30.1
2023-02-16T10:43:40.708Z,43.4
2023-02-16T10:48:36.972Z,44.839999999999996
2023-02-16T10:53:42.203Z,34.980000000000004
2023-02-16T10:58:46.459Z,30.6
2023-02-16T11:03:45.681Z,150.8
2023-02-16T11:08:46.937Z,26.880000000000003
2023-02-16T11:13:49.152Z,32.32000000000001
2023-02-16T11:18:55.393Z,33.8
2023-02-16T11:23:57.650Z,34.4
2023-02-16T11:29:01.896Z,28.2
2023-02-16T11:34:00.180Z,33.12
2023-02-16T11:39:01.412Z,28.459999999999997
2023-02-16T11:43:58.704Z,40.04
2023-02-16T11:48:56.880Z,29.9
2023-02-16T11:54:00.176Z,32.22
2023-02-16T11:59:05.416Z,35.760000000000005
2023-02-16T12:04:12.789Z,31.379999999999995
2023-02-16T12:09:19.895Z,31.1
2023-02-16T12:14:26.052Z,28.540000000000003
2023-02-16T12:24:43.560Z,28.78
2023-02-16T12:29:53.764Z,24.38
2023-02-16T12:34:59.038Z,26.339999999999996
2023-02-16T12:40:06.251Z,30.660000000000004
2023-02-16T12:45:09.500Z,30.139999999999997
2023-02-16T12:50:16.708Z,33.08
2023-02-16T12:55:18.967Z,47.980000000000004
2023-02-16T13:00:21.258Z,48.1
2023-02-16T13:05:23.422Z,37.06
2023-02-16T13:10:26.739Z,34.440000000000005
2023-02-16T13:15:31.958Z,30.98
2023-02-16T13:20:28.217Z,40.12
2023-02-16T13:25:38.524Z,32.08
2023-02-16T13:30:48.944Z,42.64
2023-02-16T13:35:58.876Z,32.379999999999995
2023-02-16T13:41:15.058Z,32.72
2023-02-16T13:46:15.375Z,31.919999999999998
2023-02-16T13:51:13.613Z,48.419999999999995
2023-02-16T13:56:13.846Z,27.54
2023-02-16T14:06:23.333Z,51.019999999999996
2023-02-16T14:11:23.611Z,35.17999999999999
2023-02-16T14:16:27.803Z,34.82000000000001
2023-02-16T14:21:31.053Z,35.339999999999996
2023-02-16T14:26:37.264Z,43.76
2023-02-16T14:31:40.602Z,40.620000000000005
2023-02-16T14:36:43.805Z,37
2023-02-16T14:41:43.003Z,39.36
2023-02-16T14:46:50.283Z,45.18
2023-02-16T14:52:05.474Z,52.42
2023-02-16T14:57:12.755Z,53.9
2023-02-16T15:02:20.911Z,51.02
2023-02-16T15:07:18.179Z,46.14
2023-02-16T15:12:19.421Z,49.44
2023-02-16T15:17:20.702Z,49.839999999999996
2023-02-16T15:22:18.946Z,57.48
2023-02-16T15:27:21.158Z,58.96
2023-02-16T15:32:18.525Z,59.48
2023-02-16T15:37:23.630Z,71.3
2023-02-16T15:42:21.943Z,110.18000000000002
2023-02-16T15:47:21.213Z,211.04000000000002
2023-02-16T15:52:19.466Z,168.14000000000001
2023-02-16T15:57:19.707Z,132.98
2023-02-16T16:02:16.964Z,114.12
2023-02-16T16:07:15.224Z,127.55999999999999
2023-02-16T16:12:12.426Z,140.57999999999998
2023-02-16T16:17:12.734Z,126.44000000000001
2023-02-16T16:22:22.106Z,138.24
2023-02-16T16:27:28.175Z,147.78
2023-02-16T16:32:25.487Z,271.26
2023-02-16T16:37:27.663Z,162.32
2023-02-16T16:42:35.868Z,206.68
2023-02-16T16:47:38.287Z,156.22
2023-02-16T16:52:37.396Z,153.35999999999999
2023-02-16T16:57:34.646Z,149.68
2023-02-16T17:02:30.920Z,273.32000000000005
2023-02-16T17:07:27.170Z,422.08000000000004
2023-02-16T17:12:24.453Z,416.38
2023-02-16T17:17:21.669Z,419.18
2023-02-16T17:22:19.934Z,421.64
2023-02-16T17:27:16.181Z,339.68
2023-02-16T17:32:12.571Z,566.8799999999999
2023-02-16T17:37:09.719Z,732.72
2023-02-16T17:42:09.948Z,463.12000000000006
2023-02-16T17:47:06.223Z,461.66
2023-02-16T17:52:02.490Z,346.8
2023-02-16T17:56:58.754Z,459.5
2023-02-16T18:01:55.042Z,340.74
2023-02-16T18:06:52.248Z,289.41999999999996
2023-02-16T18:11:48.532Z,477.4
2023-02-16T18:16:44.875Z,411.21999999999997
2023-02-16T18:21:41.057Z,467.56000000000006
2023-02-16T18:26:37.284Z,524.72
2023-02-16T18:31:36.634Z,361.28000000000003
2023-02-16T18:36:32.834Z,354.42
2023-02-16T18:41:29.063Z,359.38
2023-02-16T18:46:29.364Z,364.98
2023-02-16T18:51:25.607Z,344.1
2023-02-16T18:56:21.816Z,347.82000000000005
2023-02-16T19:01:25.161Z,302.97999999999996
2023-02-16T19:06:21.343Z,417.68
2023-02-16T19:11:17.584Z,295.82
2023-02-16T19:16:13.923Z,302.82
2023-02-16T19:21:11.134Z,316.68
2023-02-16T19:26:08.352Z,342.38
2023-02-16T19:31:05.687Z,319.54
2023-02-16T19:36:03.186Z,320.4
2023-02-16T19:40:59.114Z,318.38
2023-02-16T19:45:55.456Z,444.2
2023-02-16T19:50:55.666Z,278.36
2023-02-16T19:55:51.919Z,276.88
2023-02-16T20:00:48.179Z,253.5
2023-02-16T20:05:44.434Z,209.92
2023-02-16T20:10:41.831Z,247.98000000000002
2023-02-16T20:15:42.078Z,236.51999999999998
2023-02-16T20:20:38.168Z,242.28000000000003
2023-02-16T20:25:34.463Z,194.02
2023-02-16T20:30:30.818Z,188.04
2023-02-16T20:35:27.238Z,199.42000000000002
2023-02-16T20:40:23.265Z,177.95999999999998
2023-02-16T20:45:19.511Z,146.7
2023-02-16T20:50:15.750Z,123.16
2023-02-16T20:55:12.070Z,121
2023-02-16T21:00:11.305Z,106.91999999999999
2023-02-16T21:05:07.514Z,152.78000000000003
2023-02-16T21:10:04.773Z,176.06
2023-02-16T21:15:01.032Z,120.75999999999999
2023-02-16T21:19:57.349Z,95.74
2023-02-16T21:24:53.573Z,135.21999999999997
2023-02-16T21:29:49.818Z,150.04
2023-02-16T21:34:46.086Z,140.21999999999997
2023-02-16T21:39:42.384Z,127
2023-02-16T21:44:38.625Z,126.74000000000001
2023-02-16T21:49:34.832Z,138.44
2023-02-16T21:54:31.130Z,143.58
2023-02-16T21:59:27.380Z,139.44
2023-02-16T22:04:23.728Z,153.28000000000003
2023-02-16T22:09:20.888Z,114.14000000000001
2023-02-16T22:14:17.203Z,111.72
2023-02-16T22:19:14.423Z,125.98000000000002
2023-02-16T22:24:11.660Z,129.76
2023-02-16T22:29:07.956Z,111.96000000000001
2023-02-16T22:34:05.181Z,86.72
2023-02-16T22:39:06.461Z,103.9
2023-02-16T22:44:02.729Z,112.52000000000001
2023-02-16T22:48:58.981Z,97.72
2023-02-16T22:53:55.246Z,91.28
2023-02-16T22:58:50.518Z,109.88
2023-02-16T23:03:51.776Z,107.12
2023-02-16T23:08:50.955Z,101.48
2023-02-16T23:13:51.208Z,107.25999999999999
2023-02-16T23:18:47.488Z,104
2023-02-16T23:23:48.735Z,108.96
2023-02-16T23:28:49.960Z,115.35999999999999
2023-02-16T23:33:46.258Z,168.7
2023-02-16T23:38:44.516Z,164.78
2023-02-16T23:43:39.734Z,226.17999999999998
2023-02-16T23:48:35.092Z,136.34
2023-02-16T23:53:31.252Z,124.2
2023-02-16T23:58:26.543Z,102.72
